Time;durP1;ratioP1;P1;durP2;ratioP2;P2;SDS_P1;SDS_P2;PMS_P1;PMS_P2;Temp;Humidity;BMP_temperature;BMP_pressure;BME280_temperature;BME280_humidity;BME280_pressure;Samples;Min_cycle;Max_cycle;Signal;HPM_P1;HPM_P2
2023/05/09 00:01:15;;;;;;;8.37;4.60;;;;;;;9.92;53.75;101651.38;5059051;28;20198;-69
2023/05/09 00:03:43;;;;;;;9.30;4.47;;;;;;;9.90;53.26;101651.34;5069784;28;20736;-68
2023/05/09 00:06:12;;;;;;;9.53;4.30;;;;;;;9.88;54.03;101650.44;5071677;28;20540;-69
2023/05/09 00:08:40;;;;;;;9.57;4.63;;;;;;;9.85;54.46;101645.25;5068901;28;20205;-68
2023/05/09 00:11:08;;;;;;;9.33;4.53;;;;;;;9.87;54.47;101650.44;5070280;28;20267;-68
2023/05/09 00:13:36;;;;;;;6.37;4.50;;;;;;;9.88;54.34;101641.88;5061943;28;20307;-69
2023/05/09 00:16:06;;;;;;;8.63;5.07;;;;;;;9.87;54.27;101647.88;5067158;28;20251;-68
2023/05/09 00:18:37;;;;;;;9.70;4.77;;;;;;;9.79;55.06;101642.56;5067455;28;20212;-68
2023/05/09 00:21:04;;;;;;;6.20;4.60;;;;;;;9.75;55.48;101640.78;5066684;28;20260;-70
2023/05/09 00:23:32;;;;;;;10.63;4.77;;;;;;;9.72;55.51;101635.59;5068533;28;20636;-69
2023/05/09 00:26:01;;;;;;;11.10;6.73;;;;;;;9.70;54.99;101636.41;5062140;28;20229;-70
2023/05/09 00:28:28;;;;;;;8.73;5.60;;;;;;;9.65;55.12;101639.75;5061343;28;20294;-69
2023/05/09 00:30:56;;;;;;;7.80;5.13;;;;;;;9.61;55.24;101635.41;5057110;28;20202;-69
2023/05/09 00:33:26;;;;;;;7.93;6.20;;;;;;;9.56;55.31;101629.28;5069174;28;20218;-70
2023/05/09 00:35:54;;;;;;;7.00;5.13;;;;;;;9.53;55.83;101634.38;5061745;28;20205;-70
2023/05/09 00:38:22;;;;;;;11.73;6.60;;;;;;;9.51;55.16;101630.06;5056797;28;20656;-70
2023/05/09 00:40:50;;;;;;;12.07;6.17;;;;;;;9.50;56.00;101634.34;5061604;28;20750;-69
2023/05/09 00:43:18;;;;;;;7.73;5.73;;;;;;;9.50;56.12;101634.34;5062206;28;20198;-70
2023/05/09 00:45:47;;;;;;;11.53;6.80;;;;;;;9.50;55.79;101629.19;5059230;28;20198;-68
2023/05/09 00:48:16;;;;;;;8.73;5.60;;;;;;;9.50;55.95;101624.06;5066876;28;20534;-69
2023/05/09 00:50:45;;;;;;;9.00;6.33;;;;;;;9.51;55.52;101630.94;5057315;28;20258;-69
2023/05/09 00:53:14;;;;;;;11.33;6.87;;;;;;;9.50;56.18;101631.78;5065518;28;20221;-68
2023/05/09 00:55:42;;;;;;;9.13;7.40;;;;;;;9.45;55.85;101625.66;5057628;28;20202;-72
2023/05/09 00:58:11;;;;;;;11.33;7.30;;;;;;;9.41;55.54;101626.44;5054703;28;20654;-70
2023/05/09 01:00:38;;;;;;;9.63;7.10;;;;;;;9.40;55.95;101627.28;5069264;28;20228;-68
2023/05/09 01:03:07;;;;;;;8.77;5.97;;;;;;;9.40;55.67;101625.56;5055715;28;20229;-69
2023/05/09 01:05:43;;;;;;;11.20;7.03;;;;;;;9.41;55.54;101621.28;5056305;28;20588;-69
2023/05/09 01:08:21;;;;;;;9.20;6.47;;;;;;;9.42;55.74;101630.75;5056884;28;20197;-68
2023/05/09 01:10:58;;;;;;;9.77;6.43;;;;;;;9.40;55.63;101632.44;5062113;28;20250;-69
2023/05/09 01:13:32;;;;;;;9.10;6.10;;;;;;;9.41;56.21;101629.00;5069750;28;20286;-69
2023/05/09 01:16:07;;;;;;;7.77;6.03;;;;;;;9.37;55.83;101630.66;5063446;28;20269;-67
2023/05/09 01:18:43;;;;;;;8.87;6.30;;;;;;;9.30;56.15;101625.38;5064578;28;20543;-67
2023/05/09 01:21:16;;;;;;;10.03;7.07;;;;;;;9.27;56.38;101633.88;5056439;28;20228;-69
2023/05/09 01:24:29;;;;;;;9.23;6.10;;;;;;;9.23;57.22;101629.53;5068690;28;20544;-69
2023/05/09 01:27:20;;;;;;;10.83;6.13;;;;;;;9.18;56.71;101629.44;5044521;28;20604;-69
2023/05/09 01:29:53;;;;;;;10.17;6.93;;;;;;;9.15;55.81;101625.94;5066009;28;20209;-71
2023/05/09 01:32:25;;;;;;;11.23;8.00;;;;;;;9.09;55.98;101631.81;5058186;28;20205;-66
2023/05/09 01:34:59;;;;;;;13.60;7.70;;;;;;;9.04;55.33;101623.16;5069043;28;20229;-68
2023/05/09 01:37:31;;;;;;;9.60;6.97;;;;;;;9.03;55.38;101631.72;5065218;28;20201;-68
2023/05/09 01:40:07;;;;;;;10.03;7.43;;;;;;;9.01;55.01;101630.81;5061905;28;20255;-67
2023/05/09 01:42:41;;;;;;;9.80;7.40;;;;;;;9.01;55.43;101627.38;5055359;28;20239;-68
2023/05/09 01:45:13;;;;;;;11.23;7.13;;;;;;;8.98;55.28;101630.72;5060004;28;20235;-69
2023/05/09 01:47:43;;;;;;;10.13;7.23;;;;;;;8.94;55.64;101637.50;5065693;28;20259;-68
2023/05/09 01:50:12;;;;;;;8.73;6.83;;;;;;;8.91;55.38;101627.19;5061592;28;20324;-69
2023/05/09 01:52:42;;;;;;;10.30;7.50;;;;;;;8.90;55.62;101634.84;5052865;28;20696;-68
2023/05/09 01:55:12;;;;;;;9.60;6.83;;;;;;;8.87;56.08;101632.22;5068591;28;20834;-69
2023/05/09 01:57:40;;;;;;;9.23;6.40;;;;;;;8.82;55.58;101628.69;5068137;28;20215;-69
2023/05/09 02:00:13;;;;;;;9.50;7.00;;;;;;;8.78;56.47;101630.34;5066019;28;20202;-69
2023/05/09 02:02:42;;;;;;;8.07;6.40;;;;;;;8.75;55.80;101630.25;5064557;28;20240;-69
2023/05/09 02:05:12;;;;;;;9.13;6.70;;;;;;;8.71;55.82;101624.19;5056259;28;20202;-69
2023/05/09 02:07:41;;;;;;;9.00;6.57;;;;;;;8.71;55.34;101623.31;5068511;28;20208;-70
2023/05/09 02:10:11;;;;;;;9.43;6.90;;;;;;;8.68;55.38;101618.97;5062216;28;20641;-67
2023/05/09 02:12:39;;;;;;;9.40;6.23;;;;;;;8.67;55.47;101619.81;5068580;28;20237;-70
2023/05/09 02:15:10;;;;;;;9.10;6.57;;;;;;;8.66;55.03;101618.09;5065743;28;20229;-69
2023/05/09 02:17:38;;;;;;;9.87;6.40;;;;;;;8.66;54.94;101623.25;5066116;28;20233;-70
2023/05/09 02:20:08;;;;;;;8.57;6.90;;;;;;;8.62;55.55;101616.31;5059671;28;20529;-70
2023/05/09 02:22:36;;;;;;;9.87;7.07;;;;;;;8.60;55.63;101615.38;5064716;28;20251;-69
2023/05/09 02:25:06;;;;;;;9.63;6.60;;;;;;;8.59;55.28;101626.50;5068937;28;20226;-69
2023/05/09 02:27:35;;;;;;;9.60;6.40;;;;;;;8.58;55.26;101622.22;5064286;28;20212;-68
2023/05/09 02:30:06;;;;;;;8.00;6.30;;;;;;;8.58;55.49;101622.22;5069102;28;20217;-70
2023/05/09 02:32:38;;;;;;;8.17;6.00;;;;;;;8.55;55.56;101617.00;5065702;28;20255;-70
2023/05/09 02:35:09;;;;;;;9.50;6.63;;;;;;;8.56;55.75;101623.88;5060397;28;20228;-70
2023/05/09 02:37:37;;;;;;;8.80;6.10;;;;;;;8.56;54.56;101626.44;5070573;28;20711;-69
2023/05/09 02:40:07;;;;;;;8.83;6.17;;;;;;;8.57;54.66;101617.88;5058408;28;20256;-69
2023/05/09 02:42:36;;;;;;;9.73;6.50;;;;;;;8.53;54.88;101618.66;5066775;28;20648;-70
2023/05/09 02:45:06;;;;;;;10.40;6.27;;;;;;;8.52;54.26;101619.50;5062490;28;20193;-69
2023/05/09 02:47:35;;;;;;;8.23;5.77;;;;;;;8.51;53.82;101615.19;5060805;28;20201;-68
2023/05/09 02:50:04;;;;;;;7.50;5.87;;;;;;;8.51;52.89;101622.03;5069274;28;20299;-68
2023/05/09 02:52:32;;;;;;;10.43;6.27;;;;;;;8.51;52.79;101627.19;5062431;28;20201;-69
2023/05/09 02:55:00;;;;;;;7.90;5.40;;;;;;;8.53;52.08;101628.94;5070313;28;20256;-69
2023/05/09 02:57:28;;;;;;;8.30;5.40;;;;;;;8.55;52.02;101621.28;5067287;28;20569;-70
2023/05/09 02:59:56;;;;;;;7.87;4.93;;;;;;;8.56;50.27;101623.88;5066987;28;20209;-69
2023/05/09 03:02:23;;;;;;;8.10;6.13;;;;;;;8.55;51.18;101619.56;5061031;28;20212;-70
2023/05/09 03:04:53;;;;;;;9.07;5.37;;;;;;;8.58;50.69;101622.22;5070797;28;20308;-69
2023/05/09 03:07:21;;;;;;;8.17;5.57;;;;;;;8.60;51.03;101619.66;5065261;28;20209;-69
2023/05/09 03:09:48;;;;;;;5.53;4.93;;;;;;;8.62;50.65;101618.00;5059050;28;20695;-69
2023/05/09 03:12:16;;;;;;;8.67;5.70;;;;;;;8.67;51.19;101626.66;5072420;28;20722;-69
2023/05/09 03:14:44;;;;;;;10.10;5.70;;;;;;;8.67;50.72;101624.97;5057316;28;20218;-69
2023/05/09 03:17:16;;;;;;;8.77;5.93;;;;;;;8.68;49.94;101624.13;5070679;28;20231;-68
2023/05/09 03:19:44;;;;;;;9.17;6.17;;;;;;;8.67;49.01;101627.53;5069196;28;20206;-67
2023/05/09 03:22:13;;;;;;;9.17;6.10;;;;;;;8.69;49.89;101625.88;5044027;28;20205;-68
2023/05/09 03:24:41;;;;;;;8.10;4.90;;;;;;;8.74;49.97;101623.41;5072586;28;20213;-70
2023/05/09 03:27:09;;;;;;;6.93;5.10;;;;;;;8.77;49.26;101622.59;5060693;28;20202;-69
2023/05/09 03:29:37;;;;;;;8.23;5.97;;;;;;;8.80;49.28;101625.22;5055713;28;20719;-69
2023/05/09 03:32:05;;;;;;;9.00;5.87;;;;;;;8.82;50.04;101626.13;5064191;28;20232;-67
2023/05/09 03:34:33;;;;;;;7.23;5.00;;;;;;;8.81;50.20;101629.53;5069889;28;20745;-68
2023/05/09 03:37:01;;;;;;;8.63;6.20;;;;;;;8.82;49.18;101623.56;5071610;28;20205;-69
2023/05/09 03:39:30;;;;;;;8.87;5.40;;;;;;;8.84;48.86;101627.91;5063196;28;20202;-68
2023/05/09 03:41:58;;;;;;;12.93;6.33;;;;;;;8.80;49.40;101628.69;5056374;28;20205;-70
2023/05/09 03:44:26;;;;;;;13.03;5.90;;;;;;;8.78;48.40;101629.47;5053316;28;20202;-68
2023/05/09 03:46:54;;;;;;;9.73;5.90;;;;;;;8.79;47.56;101634.63;5062720;28;20248;-69
2023/05/09 03:49:22;;;;;;;8.53;5.57;;;;;;;8.87;47.25;101632.22;5063461;28;20613;-68
2023/05/09 03:51:50;;;;;;;10.03;6.20;;;;;;;8.96;47.00;101640.13;5066064;28;20225;-69
2023/05/09 03:54:18;;;;;;;9.73;6.40;;;;;;;9.02;47.52;101631.66;5056329;28;20217;-70
2023/05/09 03:56:47;;;;;;;9.67;6.33;;;;;;;9.09;47.17;101631.81;5065893;28;20217;-70
2023/05/09 03:59:15;;;;;;;7.83;5.60;;;;;;;9.22;47.16;101632.94;5069396;28;20251;-70
2023/05/09 04:01:45;;;;;;;7.43;5.10;;;;;;;9.38;46.58;101624.66;5065261;28;20205;-68
2023/05/09 04:04:13;;;;;;;8.00;5.63;;;;;;;9.52;45.28;101627.50;5071948;28;20225;-70
2023/05/09 04:06:41;;;;;;;9.20;5.37;;;;;;;9.66;45.17;101625.19;5065951;28;20205;-69
2023/05/09 04:09:09;;;;;;;10.13;5.87;;;;;;;9.79;44.54;101626.25;5064503;28;20201;-69
2023/05/09 04:11:37;;;;;;;9.30;5.60;;;;;;;9.85;44.00;101628.94;5057395;28;20268;-69
2023/05/09 04:14:07;;;;;;;7.63;5.67;;;;;;;9.92;43.58;101617.91;5062984;28;20656;-68
2023/05/09 04:16:35;;;;;;;7.73;5.63;;;;;;;10.02;43.60;101619.78;5058812;28;20244;-69
2023/05/09 04:19:03;;;;;;;10.47;6.23;;;;;;;10.15;43.44;101618.25;5067438;28;20212;-71
2023/05/09 04:21:31;;;;;;;10.47;5.60;;;;;;;10.24;43.42;101604.66;5068620;28;20255;-69
2023/05/09 04:23:59;;;;;;;6.23;5.40;;;;;;;10.36;43.27;101621.19;5060730;28;20236;-70
2023/05/09 04:26:27;;;;;;;9.40;5.43;;;;;;;10.47;43.08;101615.34;5064309;28;20205;-70
2023/05/09 04:28:55;;;;;;;9.50;5.30;;;;;;;10.60;42.87;101618.13;5070815;28;20648;-70
2023/05/09 04:31:25;;;;;;;7.93;5.60;;;;;;;10.75;43.07;101621.72;5060614;28;20607;-69
2023/05/09 04:33:53;;;;;;;10.37;6.03;;;;;;;10.95;42.14;101630.56;5035554;28;20217;-70
2023/05/09 04:36:21;;;;;;;7.60;5.30;;;;;;;11.19;41.98;101626.53;5058860;28;20268;-69
2023/05/09 04:38:50;;;;;;;9.57;5.50;;;;;;;11.40;41.92;101624.19;5065255;28;20193;-66
2023/05/09 04:41:17;;;;;;;7.30;5.00;;;;;;;11.57;41.42;101632.13;5063160;28;20206;-67
2023/05/09 04:43:45;;;;;;;9.97;5.60;;;;;;;11.74;40.87;101637.44;5068360;28;20209;-67
2023/05/09 04:46:13;;;;;;;8.67;6.30;;;;;;;11.80;39.84;101632.34;5069406;28;20255;-66
2023/05/09 04:48:42;;;;;;;12.03;7.13;;;;;;;11.75;39.37;101629.72;5068035;28;20215;-70
2023/05/09 04:51:10;;;;;;;11.83;6.40;;;;;;;11.71;39.88;101627.97;5063007;28;20212;-68
2023/05/09 04:53:38;;;;;;;9.40;6.43;;;;;;;11.79;39.66;101626.31;5061292;28;20225;-69
2023/05/09 04:56:06;;;;;;;8.80;5.97;;;;;;;11.97;39.20;101619.63;5061824;28;20221;-71
2023/05/09 04:58:37;;;;;;;9.97;6.80;;;;;;;12.14;39.17;101627.47;5069995;28;20208;-69
2023/05/09 05:01:05;;;;;;;8.37;5.97;;;;;;;12.35;38.80;101619.88;5064069;28;20256;-67
2023/05/09 05:03:33;;;;;;;10.23;5.87;;;;;;;12.68;38.54;101621.78;5065400;28;20216;-68
2023/05/09 05:06:03;;;;;;;9.10;5.63;;;;;;;13.18;37.47;101622.84;5069421;28;20232;-69
2023/05/09 05:08:31;;;;;;;6.90;5.33;;;;;;;13.90;36.54;101626.44;5052544;28;20206;-69
2023/05/09 05:10:58;;;;;;;7.70;5.40;;;;;;;15.09;35.49;101619.28;5059251;28;20197;-71
2023/05/09 05:13:26;;;;;;;11.00;5.60;;;;;;;16.55;32.96;101614.69;5064520;28;20241;-70
2023/05/09 05:15:55;;;;;;;7.18;5.07;;;;;;;18.20;30.82;101605.41;5064947;28;20228;-72
2023/05/09 05:18:23;;;;;;;6.80;5.35;;;;;;;19.67;27.61;101605.81;5065561;28;20227;-71
2023/05/09 05:20:51;;;;;;;7.45;5.30;;;;;;;20.50;26.29;101608.91;5063036;28;20197;-69
2023/05/09 05:23:20;;;;;;;10.52;5.40;;;;;;;21.09;24.93;101611.53;5061351;28;20197;-71
2023/05/09 05:25:48;;;;;;;8.63;5.30;;;;;;;21.64;24.17;101606.38;5066550;28;20194;-74
2023/05/09 05:28:16;;;;;;;9.10;5.35;;;;;;;22.17;23.59;101603.75;5054147;28;20252;-70
2023/05/09 05:30:46;;;;;;;8.77;4.80;;;;;;;22.93;22.42;101601.88;5053758;28;20653;-72
2023/05/09 05:33:14;;;;;;;7.50;5.38;;;;;;;24.00;21.05;101603.66;5055492;28;21212;-71
2023/05/09 05:35:42;;;;;;;6.45;4.75;;;;;;;24.89;19.75;101599.75;5059331;28;20218;-70
2023/05/09 05:38:13;;;;;;;8.30;5.70;;;;;;;26.09;19.58;101588.63;5056200;28;20201;-70
2023/05/09 05:40:42;;;;;;;7.47;5.13;;;;;;;27.00;17.35;101588.16;5061387;28;20240;-70
2023/05/09 05:43:10;;;;;;;6.90;4.72;;;;;;;27.64;16.71;101588.91;5061687;28;20251;-69
2023/05/09 05:45:38;;;;;;;6.97;4.88;;;;;;;28.45;16.40;101588.53;5065979;28;20553;-72
2023/05/09 05:48:06;;;;;;;7.45;4.78;;;;;;;29.09;14.91;101585.34;5055913;28;20205;-65
2023/05/09 05:50:35;;;;;;;6.70;5.15;;;;;;;29.31;14.79;101587.44;5059187;28;20624;-69
2023/05/09 05:53:03;;;;;;;5.30;4.45;;;;;;;29.34;14.26;101587.19;5063334;28;20529;-67
2023/05/09 05:55:31;;;;;;;6.28;4.20;;;;;;;29.48;14.20;101582.78;5066264;28;20303;-66
2023/05/09 05:58:00;;;;;;;5.47;3.70;;;;;;;29.52;13.64;101581.63;5066469;28;22476;-69
2023/05/09 06:00:28;;;;;;;3.80;3.33;;;;;;;29.36;13.43;101580.00;5064646;28;20251;-67
2023/05/09 06:02:56;;;;;;;3.88;3.30;;;;;;;29.06;13.11;101587.34;5066496;28;20206;-67
2023/05/09 06:05:24;;;;;;;6.18;3.60;;;;;;;29.13;13.70;101583.31;5058888;28;20197;-68
2023/05/09 06:07:52;;;;;;;4.72;3.30;;;;;;;29.67;13.62;101577.13;5058577;28;20277;-67
2023/05/09 06:10:20;;;;;;;4.72;3.92;;;;;;;30.26;12.98;101570.38;5064303;28;20544;-67
2023/05/09 06:12:48;;;;;;;5.45;3.65;;;;;;;30.45;12.73;101572.59;5059557;28;20294;-70
2023/05/09 06:15:17;;;;;;;5.38;4.03;;;;;;;31.16;12.98;101579.00;5059426;28;20214;-69
2023/05/09 06:17:45;;;;;;;4.95;4.28;;;;;;;31.26;12.03;101571.16;5059826;28;20680;-70
2023/05/09 06:20:13;;;;;;;6.03;4.30;;;;;;;30.70;12.11;101576.16;5060338;28;20636;-70
2023/05/09 06:22:41;;;;;;;7.65;4.80;;;;;;;30.23;12.71;101577.72;5073825;28;20205;-69
2023/05/09 06:25:09;;;;;;;6.93;4.40;;;;;;;30.02;13.08;101577.38;5073703;28;20205;-69
2023/05/09 06:27:37;;;;;;;8.77;4.35;;;;;;;29.91;13.10;101585.25;5073773;28;20240;-68
2023/05/09 06:30:06;;;;;;;6.43;3.92;;;;;;;29.66;12.61;101578.94;5073648;28;20251;-69
2023/05/09 06:32:53;;;;;;;5.78;5.03;;;;;;;29.89;13.29;101582.69;5063975;28;20260;-70
2023/05/09 06:35:21;;;;;;;8.35;4.70;;;;;;;30.18;13.16;101578.03;5070608;28;20197;-68
2023/05/09 06:37:49;;;;;;;5.95;4.22;;;;;;;30.31;13.13;101584.22;5073456;28;20620;-69
2023/05/09 06:40:17;;;;;;;8.02;4.30;;;;;;;30.39;13.11;101590.81;5053014;28;20209;-68
2023/05/09 06:42:45;;;;;;;4.32;3.90;;;;;;;30.35;13.09;101578.69;5073456;28;20200;-69
2023/05/09 06:45:13;;;;;;;6.53;4.28;;;;;;;29.99;12.68;101578.44;5073244;28;20209;-71
2023/05/09 06:47:41;;;;;;;4.50;4.10;;;;;;;29.85;13.12;101590.00;5073493;28;20664;-68
2023/05/09 06:50:11;;;;;;;3.80;3.38;;;;;;;29.80;12.93;101586.81;5073357;28;20205;-68
2023/05/09 06:52:39;;;;;;;6.20;4.30;;;;;;;29.82;13.49;101586.72;5072065;28;20201;-72
2023/05/09 06:55:09;;;;;;;5.50;3.35;;;;;;;29.72;13.23;101586.50;5073219;28;20205;-70
2023/05/09 06:57:38;;;;;;;5.15;3.35;;;;;;;29.30;12.73;101577.75;5052355;28;20217;-69
2023/05/09 07:00:08;;;;;;;6.55;3.13;;;;;;;28.68;13.29;101572.00;5066084;28;20208;-71
2023/05/09 07:02:40;;;;;;;6.03;3.83;;;;;;;28.75;13.61;101565.38;5073296;28;20209;-68
2023/05/09 07:05:09;;;;;;;5.40;3.60;;;;;;;28.65;13.40;101570.44;5073208;28;20283;-68
2023/05/09 07:07:39;;;;;;;3.00;2.60;;;;;;;28.38;13.43;101564.19;5073420;28;20675;-70
2023/05/09 07:10:08;;;;;;;4.25;3.35;;;;;;;28.56;13.30;101568.34;5073043;28;20205;-69
2023/05/09 07:12:39;;;;;;;3.22;2.92;;;;;;;29.20;13.19;101557.22;5071458;28;20238;-69
2023/05/09 07:15:08;;;;;;;4.32;2.33;;;;;;;29.78;12.64;101558.66;5073261;28;20648;-69
2023/05/09 07:17:36;;;;;;;2.95;2.42;;;;;;;30.43;12.06;101550.56;5072684;28;20225;-70
2023/05/09 07:20:05;;;;;;;3.30;2.28;;;;;;;30.48;11.31;101551.09;5073115;28;20229;-69
2023/05/09 07:22:34;;;;;;;3.35;1.80;;;;;;;30.39;11.35;101550.91;5073078;28;20205;-69
2023/05/09 07:25:07;;;;;;;4.97;1.98;;;;;;;30.44;11.70;101556.75;5072451;28;20202;-68
2023/05/09 07:27:35;;;;;;;2.75;1.73;;;;;;;30.71;10.66;101548.56;5066629;28;20213;-69
2023/05/09 07:30:04;;;;;;;3.50;2.03;;;;;;;31.37;9.91;101546.41;5058457;28;20626;-68
2023/05/09 07:32:32;;;;;;;2.33;2.10;;;;;;;31.65;10.27;101540.69;5064209;28;20267;-68
2023/05/09 07:35:00;;;;;;;4.47;1.73;;;;;;;31.89;10.14;101537.16;5068285;28;20197;-68
2023/05/09 07:37:28;;;;;;;2.80;1.58;;;;;;;32.77;9.51;101536.34;5072559;28;20225;-67
2023/05/09 07:39:56;;;;;;;6.97;2.00;;;;;;;33.29;9.42;101529.41;5062126;28;20201;-69
2023/05/09 07:42:25;;;;;;;3.42;1.67;;;;;;;33.38;8.95;101523.28;5068559;28;20225;-69
2023/05/09 07:44:53;;;;;;;1.88;1.52;;;;;;;33.03;9.42;101527.09;5065660;28;20248;-68
2023/05/09 07:47:21;;;;;;;4.28;1.55;;;;;;;32.76;8.85;101521.31;5072014;28;20259;-69
2023/05/09 07:49:49;;;;;;;1.92;1.63;;;;;;;31.81;9.43;101523.50;5060184;28;20206;-68
2023/05/09 07:52:16;;;;;;;1.40;1.30;;;;;;;31.57;9.60;101531.59;5070231;28;20205;-67
2023/05/09 07:54:45;;;;;;;3.15;1.52;;;;;;;32.28;9.18;101522.47;5072331;28;20752;-70
2023/05/09 07:57:12;;;;;;;1.73;1.63;;;;;;;32.65;8.67;101517.69;5070259;28;20263;-69
2023/05/09 07:59:42;;;;;;;1.40;1.30;;;;;;;32.99;8.55;101517.63;5068670;28;20649;-67
2023/05/09 08:02:12;;;;;;;3.55;1.38;;;;;;;33.09;8.11;101517.72;5067387;28;20209;-69
2023/05/09 08:04:40;;;;;;;1.73;1.35;;;;;;;33.44;8.45;101506.75;5071156;28;20729;-68
2023/05/09 08:07:10;;;;;;;1.42;1.30;;;;;;;33.75;7.51;101506.81;5071560;28;20271;-67
2023/05/09 08:09:38;;;;;;;2.92;1.33;;;;;;;32.39;8.42;101505.59;5071740;28;20213;-68
2023/05/09 08:12:07;;;;;;;4.07;1.42;;;;;;;31.35;9.32;101521.72;5057145;28;20336;-69
2023/05/09 08:14:35;;;;;;;2.15;1.40;;;;;;;30.21;9.72;101518.50;5058875;28;20718;-69
2023/05/09 08:17:04;;;;;;;5.70;1.88;;;;;;;29.16;10.26;101514.09;5071268;28;20228;-68
2023/05/09 08:19:32;;;;;;;2.35;1.30;;;;;;;27.54;10.70;101516.25;5069180;28;20266;-65
2023/05/09 08:22:00;;;;;;;2.78;1.80;;;;;;;25.41;12.83;101533.09;5058942;28;20205;-66
2023/05/09 08:24:36;;;;;;;2.20;1.42;;;;;;;23.57;13.90;101521.25;5102548;27;20583;-65
2023/05/09 08:27:03;;;;;;;1.65;1.50;;;;;;;22.36;14.80;101519.91;5087002;28;20738;-65
2023/05/09 08:29:32;;;;;;;1.60;1.50;;;;;;;21.79;15.96;101515.78;5086736;28;20270;-66
2023/05/09 08:31:59;;;;;;;3.03;1.50;;;;;;;21.17;16.28;101516.94;5087373;28;20542;-67
2023/05/09 08:34:27;;;;;;;2.33;1.52;;;;;;;20.23;17.34;101504.03;5081520;28;20281;-67
2023/05/09 08:36:55;;;;;;;1.92;1.42;;;;;;;19.80;18.16;101514.78;5074847;28;20196;-66
2023/05/09 08:39:23;;;;;;;3.38;1.60;;;;;;;19.70;17.93;101514.19;5082211;28;20197;-66
2023/05/09 08:41:56;;;;;;;2.85;1.80;;;;;;;19.52;18.52;101507.66;5082721;28;21045;-67
2023/05/09 08:44:24;;;;;;;2.40;1.75;;;;;;;19.40;18.40;101528.00;5085457;28;20216;-66
2023/05/09 08:46:55;;;;;;;2.83;1.70;;;;;;;19.25;18.43;101513.53;5084860;28;20207;-66
2023/05/09 08:49:23;;;;;;;1.77;1.67;;;;;;;19.20;18.86;101511.03;5082188;28;20193;-65
2023/05/09 08:51:52;;;;;;;1.17;1.08;;;;;;;19.02;18.84;101508.88;5085715;28;20204;-66
2023/05/09 08:54:21;;;;;;;3.20;1.73;;;;;;;18.81;19.94;101495.41;5086822;28;20247;-67
2023/05/09 08:56:50;;;;;;;2.00;1.80;;;;;;;18.72;20.43;101493.00;5085538;28;20204;-68
2023/05/09 08:59:19;;;;;;;1.77;1.65;;;;;;;18.75;20.96;101482.50;5081121;28;20224;-67
2023/05/09 09:01:47;;;;;;;1.80;1.50;;;;;;;18.80;21.01;101488.44;5082788;28;20209;-67
2023/05/09 09:04:16;;;;;;;4.30;1.98;;;;;;;18.87;21.10;101490.94;5085779;28;20207;-67
2023/05/09 09:06:44;;;;;;;2.15;1.65;;;;;;;18.77;20.09;101485.91;5079455;28;20216;-67
2023/05/09 09:09:15;;;;;;;5.97;2.00;;;;;;;18.67;20.08;101486.09;5086905;28;20212;-67
2023/05/09 09:11:44;;;;;;;1.50;1.40;;;;;;;18.70;20.43;101488.66;5076261;28;20283;-68
2023/05/09 09:14:15;;;;;;;1.73;1.50;;;;;;;18.73;19.89;101489.47;5086382;28;20311;-68
2023/05/09 09:16:47;;;;;;;1.50;1.40;;;;;;;18.81;19.98;101492.81;5084199;28;20262;-67
2023/05/09 09:19:18;;;;;;;1.65;1.55;;;;;;;18.96;19.87;101488.97;5083732;28;20203;-68
2023/05/09 09:21:47;;;;;;;4.05;1.45;;;;;;;19.46;19.62;101486.03;5083950;28;20204;-67
2023/05/09 09:24:23;;;;;;;2.50;1.70;;;;;;;20.38;18.35;101476.53;5085702;28;20327;-66
2023/05/09 09:26:51;;;;;;;5.47;2.00;;;;;;;21.55;17.94;101473.75;5079071;28;20200;-68
2023/05/09 09:29:21;;;;;;;2.20;1.40;;;;;;;22.53;15.40;101462.31;5084962;28;20962;-67
2023/05/09 09:31:54;;;;;;;2.88;1.25;;;;;;;23.30;14.97;101488.19;5079011;28;20213;-66
2023/05/09 09:34:23;;;;;;;2.50;1.70;;;;;;;23.82;14.67;101459.66;5076296;28;20308;-67
2023/05/09 09:36:52;;;;;;;3.58;1.50;;;;;;;24.69;13.86;101455.69;5066078;28;20209;-68
2023/05/09 09:39:22;;;;;;;1.30;1.20;;;;;;;25.47;13.23;101448.31;5065044;28;20197;-68
2023/05/09 09:41:50;;;;;;;3.42;1.60;;;;;;;26.01;12.64;101444.59;5072237;28;20568;-65
2023/05/09 09:44:19;;;;;;;4.78;1.30;;;;;;;27.01;12.58;101446.13;5072115;28;20343;-67
2023/05/09 09:46:49;;;;;;;2.20;1.60;;;;;;;28.26;12.11;101438.53;5069124;28;20259;-67
2023/05/09 09:49:20;;;;;;;5.70;1.48;;;;;;;28.33;11.29;101439.84;5069522;28;20208;-66
2023/05/09 09:51:52;;;;;;;1.83;1.40;;;;;;;28.81;11.53;101437.63;5065661;28;20596;-67
2023/05/09 09:54:21;;;;;;;4.53;1.90;;;;;;;29.13;10.98;101429.38;5071331;28;20603;-67
2023/05/09 09:56:53;;;;;;;1.70;1.55;;;;;;;29.59;10.28;101442.16;5067763;28;20209;-68
2023/05/09 09:59:23;;;;;;;2.00;1.13;;;;;;;29.67;9.70;101426.53;5067749;28;20197;-66
2023/05/09 10:01:56;;;;;;;1.35;1.20;;;;;;;30.35;10.26;101430.59;5069421;28;20197;-68
2023/05/09 10:04:29;;;;;;;1.70;1.52;;;;;;;30.79;9.25;101435.31;5072077;28;20667;-67
2023/05/09 10:06:58;;;;;;;2.22;1.10;;;;;;;30.55;9.34;101423.81;5071047;28;20243;-67
2023/05/09 10:09:27;;;;;;;2.25;1.63;;;;;;;30.46;10.01;101422.69;5061123;28;20263;-67
2023/05/09 10:11:57;;;;;;;5.22;1.80;;;;;;;30.78;9.49;101428.31;5069449;28;20251;-68
2023/05/09 10:14:26;;;;;;;1.85;1.60;;;;;;;29.71;9.93;101425.38;5071961;28;20221;-67
2023/05/09 10:16:56;;;;;;;1.60;1.50;;;;;;;28.94;10.21;101415.59;5071545;28;20209;-67
2023/05/09 10:19:28;;;;;;;2.95;1.33;;;;;;;28.83;10.68;101422.47;5071188;28;20220;-68
2023/05/09 10:21:59;;;;;;;1.88;1.50;;;;;;;29.41;10.75;101406.22;5069414;28;20208;-67
2023/05/09 10:24:29;;;;;;;1.65;1.38;;;;;;;29.62;10.37;101415.41;5069601;28;20278;-67
2023/05/09 10:27:04;;;;;;;3.15;1.83;;;;;;;30.15;10.02;101402.75;5072083;28;20278;-67
2023/05/09 10:29:37;;;;;;;2.00;1.42;;;;;;;30.75;9.93;101403.75;5067542;28;20212;-65
2023/05/09 10:32:20;;;;;;;2.20;1.50;;;;;;;30.98;9.76;101402.00;5067338;28;20648;-65
2023/05/09 10:34:54;;;;;;;3.67;1.40;;;;;;;31.28;8.97;101404.97;5071513;28;20710;-67
2023/05/09 10:37:23;;;;;;;3.92;1.73;;;;;;;31.07;9.44;101395.09;5070006;28;20551;-67
2023/05/09 10:39:52;;;;;;;3.20;1.17;;;;;;;30.80;9.91;101399.75;5069929;28;20299;-66
2023/05/09 10:42:22;;;;;;;1.35;1.25;;;;;;;30.26;9.79;101383.38;5066651;28;20208;-66
2023/05/09 10:44:51;;;;;;;5.13;1.73;;;;;;;30.18;10.62;101381.28;5066081;28;20201;-66
2023/05/09 10:47:20;;;;;;;3.20;1.42;;;;;;;30.25;10.20;101387.84;5069356;28;20276;-69
2023/05/09 10:49:50;;;;;;;4.78;1.48;;;;;;;29.39;10.77;101392.22;5072197;28;20236;-67
2023/05/09 10:52:21;;;;;;;3.47;1.60;;;;;;;28.84;10.92;101381.72;5072270;28;20266;-65
2023/05/09 10:54:59;;;;;;;1.90;1.40;;;;;;;28.97;11.47;101378.22;5071537;28;20209;-64
2023/05/09 10:57:29;;;;;;;3.38;1.48;;;;;;;29.70;10.95;101386.47;5070871;28;20205;-65
2023/05/09 10:59:59;;;;;;;1.63;1.40;;;;;;;30.02;10.71;101375.38;5070809;28;20671;-67
2023/05/09 11:02:29;;;;;;;3.78;1.70;;;;;;;29.80;10.55;101373.41;5071671;28;20201;-67
2023/05/09 11:05:15;;;;;;;1.77;1.40;;;;;;;29.04;10.54;101367.13;5070729;28;20193;-66
2023/05/09 11:07:43;;;;;;;1.83;1.45;;;;;;;27.77;11.00;101378.03;5070312;28;20193;-66
2023/05/09 11:10:16;;;;;;;2.47;1.60;;;;;;;26.93;11.55;101381.28;5072035;28;20212;-65
2023/05/09 11:12:55;;;;;;;3.55;1.60;;;;;;;26.50;11.84;101370.56;5070212;28;20216;-66
2023/05/09 11:15:26;;;;;;;1.70;1.33;;;;;;;26.28;12.53;101367.38;5071614;28;20232;-67
2023/05/09 11:18:05;;;;;;;1.63;1.38;;;;;;;25.94;13.43;101358.69;5071889;28;20660;-67
2023/05/09 11:20:35;;;;;;;1.42;1.20;;;;;;;25.76;13.07;101360.53;5071350;28;20201;-67
2023/05/09 11:23:05;;;;;;;1.75;1.50;;;;;;;25.20;13.35;101345.06;5070791;28;20245;-67
2023/05/09 11:25:33;;;;;;;2.75;1.38;;;;;;;24.55;13.71;101352.69;5064479;28;20205;-66
2023/05/09 11:28:02;;;;;;;3.17;1.63;;;;;;;24.34;14.75;101344.03;5071328;28;20205;-66
2023/05/09 11:30:39;;;;;;;2.70;1.63;;;;;;;24.70;14.99;101335.28;5072842;28;20588;-61
2023/05/09 11:33:22;;;;;;;3.33;1.60;;;;;;;24.49;15.62;101326.66;5071107;28;20228;-66
2023/05/09 11:36:19;;;;;;;2.75;1.42;;;;;;;24.11;16.14;101330.16;5059092;28;20271;-66
2023/05/09 11:38:48;;;;;;;5.00;1.35;;;;;;;23.47;16.51;101325.22;5071625;28;20607;-65
2023/05/09 11:41:16;;;;;;;1.50;1.40;;;;;;;22.81;15.94;101330.69;5069023;28;20189;-66